createdAt,value
2023-02-12T00:00:25.530Z,80.41
2023-02-12T00:01:57.268Z,79.32
2023-02-12T00:03:30.305Z,80.43
2023-02-12T00:05:02.012Z,80.14
2023-02-12T00:06:56.736Z,78.52
2023-02-12T00:08:29.453Z,77.64
2023-02-12T00:10:01.318Z,78.34
2023-02-12T00:13:34.457Z,76.88
2023-02-12T00:15:22.223Z,78.78
2023-02-12T00:16:53.524Z,77.61
2023-02-12T00:18:24.796Z,75.60
2023-02-12T00:19:56.457Z,78.79
2023-02-12T00:21:44.302Z,77.30
2023-02-12T00:23:16.630Z,80.44
2023-02-12T00:24:48.272Z,78.07
2023-02-12T00:26:19.662Z,77.86
2023-02-12T00:27:56.044Z,77.19
2023-02-12T00:29:27.375Z,78.75
2023-02-12T00:30:59.507Z,76.80
2023-02-12T00:32:31.278Z,78.44
2023-02-12T00:34:08.998Z,77.37
2023-02-12T00:36:12.014Z,75.99
2023-02-12T00:37:49.748Z,76.77
2023-02-12T00:39:21.468Z,79.86
2023-02-12T00:40:58.236Z,78.13
2023-02-12T00:42:36.978Z,77.56
2023-02-12T00:44:10.555Z,76.60
2023-02-12T00:45:43.077Z,79.91
2023-02-12T00:47:32.958Z,80.21
2023-02-12T00:49:04.614Z,76.84
2023-02-12T00:50:35.956Z,79.17
2023-02-12T00:52:07.231Z,78.78
2023-02-12T00:53:38.650Z,79.12
2023-02-12T00:55:10.137Z,80.33
2023-02-12T00:56:41.628Z,78.29
2023-02-12T00:58:12.986Z,77.90
2023-02-12T00:59:44.238Z,80.12
2023-02-12T01:01:15.718Z,80.06
2023-02-12T01:02:47.212Z,78.47
2023-02-12T01:04:18.811Z,79.76
2023-02-12T01:05:50.235Z,77.83
2023-02-12T01:07:21.525Z,77.47
2023-02-12T01:08:52.937Z,79.00
2023-02-12T01:10:24.439Z,78.69
2023-02-12T01:11:55.862Z,78.17
2023-02-12T01:13:27.323Z,79.69
2023-02-12T01:14:58.628Z,77.70
2023-02-12T01:16:30.141Z,77.19
2023-02-12T01:18:01.533Z,79.13
2023-02-12T01:19:32.778Z,76.60
2023-02-12T01:21:04.034Z,77.74
2023-02-12T01:22:35.430Z,77.68
2023-02-12T01:24:06.777Z,77.79
2023-02-12T01:25:38.115Z,77.93
2023-02-12T01:27:09.553Z,76.80
2023-02-12T01:28:40.901Z,79.88
2023-02-12T01:30:12.445Z,77.45
2023-02-12T01:31:44.154Z,76.07
2023-02-12T01:33:15.473Z,78.63
2023-02-12T01:34:47.019Z,79.90
2023-02-12T01:36:18.495Z,76.37
2023-02-12T01:37:49.985Z,77.36
2023-02-12T01:39:21.310Z,78.47
2023-02-12T01:40:52.596Z,81.30
2023-02-12T01:42:23.988Z,81.00
2023-02-12T01:43:55.294Z,79.34
2023-02-12T01:45:26.886Z,82.02
2023-02-12T01:46:58.617Z,79.19
2023-02-12T01:48:30.227Z,86.89
2023-02-12T01:50:01.669Z,85.36
2023-02-12T01:51:32.919Z,86.63
2023-02-12T01:53:04.231Z,85.50
2023-02-12T01:54:35.533Z,84.08
2023-02-12T01:56:06.836Z,83.47
2023-02-12T01:57:38.143Z,83.89
2023-02-12T01:59:09.805Z,86.03
2023-02-12T02:00:41.135Z,84.29
2023-02-12T02:02:12.473Z,86.69
2023-02-12T02:03:43.886Z,85.85
2023-02-12T02:05:15.279Z,84.38
2023-02-12T02:06:47.368Z,84.91
2023-02-12T02:08:18.731Z,88.25
2023-02-12T02:09:50.040Z,86.67
2023-02-12T02:11:21.313Z,85.68
2023-02-12T02:12:52.818Z,87.09
2023-02-12T02:14:24.335Z,86.55
2023-02-12T02:15:55.981Z,86.73
2023-02-12T02:17:27.411Z,87.00
2023-02-12T02:18:58.903Z,87.37
2023-02-12T02:20:30.197Z,88.38
2023-02-12T02:22:02.787Z,85.92
2023-02-12T02:23:34.104Z,86.03
2023-02-12T02:25:05.773Z,86.92
2023-02-12T02:26:37.305Z,86.59
2023-02-12T02:28:09.003Z,86.74
2023-02-12T02:29:40.432Z,83.29
2023-02-12T02:31:11.929Z,87.59
2023-02-12T02:32:43.249Z,85.30
2023-02-12T02:34:14.479Z,84.82
2023-02-12T02:35:46.026Z,85.56
2023-02-12T02:37:17.354Z,85.60
2023-02-12T02:39:11.036Z,88.61
2023-02-12T02:40:42.428Z,83.99
2023-02-12T02:42:36.065Z,86.36
2023-02-12T02:44:07.446Z,85.21
2023-02-12T02:45:38.770Z,83.49
2023-02-12T02:47:10.447Z,84.99
2023-02-12T02:48:41.783Z,89.30
2023-02-12T02:50:13.156Z,89.62
2023-02-12T02:51:44.389Z,86.85
2023-02-12T02:53:15.892Z,89.58
2023-02-12T02:54:47.629Z,85.53
2023-02-12T02:56:18.890Z,87.12
2023-02-12T02:57:50.305Z,86.43
2023-02-12T02:59:21.759Z,85.86
2023-02-12T03:00:53.219Z,85.51
2023-02-12T03:02:24.509Z,87.54
2023-02-12T03:03:56.005Z,87.02
2023-02-12T03:05:27.439Z,87.97
2023-02-12T03:06:58.725Z,88.17
2023-02-12T03:08:30.040Z,87.64
2023-02-12T03:10:01.359Z,87.66
2023-02-12T03:11:32.856Z,86.06
2023-02-12T03:13:04.105Z,89.48
2023-02-12T03:14:35.445Z,88.23
2023-02-12T03:16:06.774Z,91.48
2023-02-12T03:17:38.049Z,91.16
2023-02-12T03:19:09.312Z,84.98
2023-02-12T03:20:40.658Z,88.20
2023-02-12T03:22:11.963Z,84.98
2023-02-12T03:23:43.378Z,86.80
2023-02-12T03:25:15.201Z,84.83
2023-02-12T03:26:46.460Z,85.47
2023-02-12T03:28:23.009Z,83.62
2023-02-12T03:29:54.313Z,83.76
2023-02-12T03:31:25.637Z,84.97
2023-02-12T03:32:56.952Z,83.87
2023-02-12T03:34:28.449Z,86.40
2023-02-12T03:35:59.738Z,87.20
2023-02-12T03:37:31.059Z,89.99
2023-02-12T03:39:02.285Z,87.81
2023-02-12T03:40:33.611Z,88.44
2023-02-12T03:42:04.872Z,85.79
2023-02-12T03:43:36.209Z,81.76
2023-02-12T03:45:07.576Z,83.45
2023-02-12T03:46:39.006Z,81.78
2023-02-12T03:48:10.393Z,82.29
2023-02-12T03:49:42.024Z,86.85
2023-02-12T03:51:13.274Z,84.77
2023-02-12T03:52:44.492Z,85.37
2023-02-12T03:54:15.818Z,81.03
2023-02-12T03:55:47.113Z,81.97
2023-02-12T03:57:18.579Z,82.16
2023-02-12T03:58:50.019Z,78.12
2023-02-12T04:00:21.623Z,79.34
2023-02-12T04:01:53.343Z,79.73
2023-02-12T04:03:24.656Z,80.49
2023-02-12T04:04:56.215Z,81.55
2023-02-12T04:06:27.624Z,84.48
2023-02-12T04:08:24.592Z,83.11
2023-02-12T04:09:55.975Z,80.37
2023-02-12T04:11:27.401Z,80.70
2023-02-12T04:12:59.191Z,80.68
2023-02-12T04:14:30.638Z,80.94
2023-02-12T04:16:02.654Z,79.39
2023-02-12T04:17:34.256Z,79.50
2023-02-12T04:19:05.848Z,76.12
2023-02-12T04:20:37.119Z,78.45
2023-02-12T04:22:08.605Z,81.94
2023-02-12T04:23:40.119Z,77.46
2023-02-12T04:25:11.393Z,77.75
2023-02-12T04:26:42.821Z,79.79
2023-02-12T04:28:14.273Z,76.27
2023-02-12T04:29:45.680Z,77.64
2023-02-12T04:31:17.289Z,79.50
2023-02-12T04:32:48.754Z,75.40
2023-02-12T04:34:20.077Z,78.06
2023-02-12T04:35:51.536Z,75.35
2023-02-12T04:37:23.049Z,74.72
2023-02-12T04:38:54.354Z,74.56
2023-02-12T04:40:25.628Z,73.73
2023-02-12T04:41:57.052Z,74.29
2023-02-12T04:43:28.519Z,73.41
2023-02-12T04:45:00.113Z,75.34
2023-02-12T04:46:31.638Z,75.56
2023-02-12T04:48:02.882Z,73.72
2023-02-12T04:49:34.218Z,73.87
2023-02-12T04:51:05.455Z,72.32
2023-02-12T04:52:36.989Z,69.20
2023-02-12T04:54:08.640Z,71.89
2023-02-12T04:55:40.050Z,74.98
2023-02-12T04:57:11.352Z,71.63
2023-02-12T04:58:42.664Z,70.21
2023-02-12T05:00:13.902Z,72.24
2023-02-12T05:01:45.368Z,70.58
2023-02-12T05:03:16.807Z,72.66
2023-02-12T05:04:48.125Z,71.02
2023-02-12T05:06:19.605Z,72.22
2023-02-12T05:07:50.885Z,69.20
2023-02-12T05:09:22.452Z,69.04
2023-02-12T05:10:53.837Z,67.75
2023-02-12T05:12:25.176Z,68.02
2023-02-12T05:13:56.830Z,71.54
2023-02-12T05:15:28.259Z,70.03
2023-02-12T05:16:59.684Z,69.04
2023-02-12T05:18:31.029Z,72.55
2023-02-12T05:20:02.386Z,72.45
2023-02-12T05:21:33.761Z,71.68
2023-02-12T05:23:05.020Z,70.56
2023-02-12T05:24:36.315Z,69.28
2023-02-12T05:26:07.601Z,70.19
2023-02-12T05:27:39.054Z,70.44
2023-02-12T05:29:10.279Z,70.89
2023-02-12T05:30:41.613Z,69.41
2023-02-12T05:32:12.914Z,70.11
2023-02-12T05:33:44.274Z,69.89
2023-02-12T05:35:15.735Z,70.46
2023-02-12T05:36:47.533Z,69.94
2023-02-12T05:38:20.624Z,72.77
2023-02-12T05:39:52.043Z,71.00
2023-02-12T05:41:23.728Z,72.30
2023-02-12T05:42:55.373Z,74.29
2023-02-12T05:44:27.488Z,72.27
2023-02-12T05:45:58.963Z,72.90
2023-02-12T05:47:30.550Z,70.68
2023-02-12T05:49:02.204Z,70.23
2023-02-12T05:50:33.585Z,72.20
2023-02-12T05:52:04.994Z,72.40
2023-02-12T05:53:36.293Z,73.07
2023-02-12T05:55:07.499Z,70.98
2023-02-12T05:56:38.869Z,71.36
2023-02-12T05:58:16.197Z,71.00
2023-02-12T05:59:47.774Z,72.59
2023-02-12T06:01:19.015Z,70.56
2023-02-12T06:02:50.423Z,72.99
2023-02-12T06:04:22.026Z,70.78
2023-02-12T06:05:53.813Z,75.92
2023-02-12T06:07:25.390Z,72.09
2023-02-12T06:08:57.743Z,69.14
2023-02-12T06:10:29.112Z,75.42
2023-02-12T06:12:00.693Z,70.42
2023-02-12T06:13:32.120Z,70.53
2023-02-12T06:15:03.539Z,74.52
2023-02-12T06:16:35.076Z,76.24
2023-02-12T06:18:06.981Z,73.66
2023-02-12T06:19:38.216Z,72.81
2023-02-12T06:21:09.588Z,75.55
2023-02-12T06:22:40.918Z,74.55
2023-02-12T06:24:12.197Z,75.22
2023-02-12T06:25:48.839Z,73.00
2023-02-12T06:27:40.110Z,72.14
2023-02-12T06:29:11.563Z,72.80
2023-02-12T06:30:48.181Z,70.15
2023-02-12T06:32:19.710Z,68.63
2023-02-12T06:34:01.297Z,69.28
2023-02-12T06:35:33.109Z,69.47
2023-02-12T06:37:04.637Z,69.17
2023-02-12T06:38:44.653Z,68.97
2023-02-12T06:40:16.149Z,68.60
2023-02-12T06:41:48.076Z,65.07
2023-02-12T06:43:24.426Z,70.04
2023-02-12T06:44:56.311Z,68.72
2023-02-12T06:46:56.288Z,69.31
2023-02-12T06:48:27.883Z,70.78
2023-02-12T06:49:59.193Z,72.82
2023-02-12T06:51:30.528Z,68.83
2023-02-12T06:53:06.792Z,71.27
2023-02-12T06:54:38.118Z,71.97
2023-02-12T06:56:09.576Z,72.26
2023-02-12T06:57:41.016Z,71.95
2023-02-12T06:59:13.099Z,71.39
2023-02-12T07:00:45.797Z,72.59
2023-02-12T07:02:17.175Z,71.77
2023-02-12T07:03:59.949Z,75.87
2023-02-12T07:05:32.668Z,73.08
2023-02-12T07:07:04.524Z,76.87
2023-02-12T07:08:51.182Z,74.90
2023-02-12T07:10:24.922Z,78.95
2023-02-12T07:11:56.776Z,76.73
2023-02-12T07:13:28.972Z,75.54
2023-02-12T07:15:00.837Z,75.85
2023-02-12T07:16:32.456Z,71.24
2023-02-12T07:18:08.801Z,72.87
2023-02-12T07:19:40.260Z,71.94
2023-02-12T07:21:11.919Z,74.28
2023-02-12T07:22:43.545Z,72.40
2023-02-12T07:24:19.885Z,71.70
2023-02-12T07:25:51.891Z,72.36
2023-02-12T07:27:28.286Z,70.28
2023-02-12T07:29:21.375Z,72.35
2023-02-12T07:30:52.847Z,70.26
2023-02-12T07:32:24.155Z,67.62
2023-02-12T07:34:20.064Z,71.93
2023-02-12T07:36:06.139Z,72.02
2023-02-12T07:37:41.847Z,71.07
2023-02-12T07:39:13.256Z,70.25
2023-02-12T07:40:44.659Z,71.16
2023-02-12T07:42:16.014Z,71.99
2023-02-12T07:43:47.568Z,72.14
2023-02-12T07:45:18.849Z,71.48
2023-02-12T07:46:50.215Z,69.49
2023-02-12T07:48:21.736Z,70.53
2023-02-12T07:49:53.394Z,70.65
2023-02-12T07:51:25.013Z,73.54
2023-02-12T07:52:56.449Z,71.18
2023-02-12T07:54:27.846Z,72.78
2023-02-12T07:56:04.300Z,73.20
2023-02-12T07:58:05.735Z,69.36
2023-02-12T07:59:37.097Z,70.48
2023-02-12T08:01:08.476Z,72.43
2023-02-12T08:02:40.176Z,70.62
2023-02-12T08:04:11.948Z,70.72
2023-02-12T08:05:43.630Z,68.85
2023-02-12T08:07:14.905Z,69.83
2023-02-12T08:08:46.320Z,71.87
2023-02-12T08:10:17.869Z,73.18
2023-02-12T08:11:49.732Z,70.78
2023-02-12T08:13:21.153Z,68.63
2023-02-12T08:14:52.797Z,69.48
2023-02-12T08:16:24.292Z,70.17
2023-02-12T08:17:55.730Z,69.75
2023-02-12T08:19:27.307Z,69.46
2023-02-12T08:20:58.803Z,69.83
2023-02-12T08:22:30.199Z,70.45
2023-02-12T08:24:01.536Z,71.51
2023-02-12T08:25:33.115Z,68.69
2023-02-12T08:27:04.516Z,70.41
2023-02-12T08:28:36.015Z,70.24
2023-02-12T08:30:07.535Z,68.02
2023-02-12T08:31:38.986Z,68.86
2023-02-12T08:33:15.422Z,67.70
2023-02-12T08:34:46.859Z,67.95
2023-02-12T08:36:18.468Z,70.71
2023-02-12T08:37:49.937Z,71.47
2023-02-12T08:39:21.339Z,67.22
2023-02-12T08:40:53.126Z,70.63
2023-02-12T08:42:24.622Z,71.57
2023-02-12T08:43:56.643Z,69.20
2023-02-12T08:45:28.680Z,67.78
2023-02-12T08:47:00.300Z,67.38
2023-02-12T08:48:32.039Z,67.47
2023-02-12T08:50:03.849Z,65.33
2023-02-12T08:51:35.173Z,67.45
2023-02-12T08:53:06.795Z,68.90
2023-02-12T08:54:38.188Z,67.34
2023-02-12T08:56:09.690Z,65.48
2023-02-12T08:57:41.035Z,66.16
2023-02-12T08:59:12.367Z,67.54
2023-02-12T09:00:43.824Z,67.85
2023-02-12T09:02:15.210Z,67.98
2023-02-12T09:03:46.746Z,65.71
2023-02-12T09:05:18.500Z,65.18
2023-02-12T09:06:49.784Z,67.24
2023-02-12T09:08:21.211Z,65.38
2023-02-12T09:09:52.530Z,63.91
2023-02-12T09:11:23.877Z,66.22
2023-02-12T09:12:55.290Z,64.57
2023-02-12T09:14:27.127Z,62.77
2023-02-12T09:15:59.558Z,65.23
2023-02-12T09:17:31.206Z,63.13
2023-02-12T09:19:02.822Z,64.48
2023-02-12T09:20:34.077Z,64.02
2023-02-12T09:22:05.469Z,63.11
2023-02-12T09:23:36.930Z,64.73
2023-02-12T09:25:08.315Z,64.30
2023-02-12T09:26:39.681Z,59.64
2023-02-12T09:28:11.050Z,60.57
2023-02-12T09:29:42.419Z,63.59
2023-02-12T09:31:14.060Z,63.71
2023-02-12T09:32:45.451Z,58.80
2023-02-12T09:34:17.039Z,60.68
2023-02-12T09:35:48.577Z,57.71
2023-02-12T09:37:19.992Z,59.64
2023-02-12T09:38:51.359Z,58.87
2023-02-12T09:40:22.686Z,58.06
2023-02-12T09:41:54.058Z,55.43
2023-02-12T09:43:25.389Z,56.57
2023-02-12T09:44:56.694Z,55.88
2023-02-12T09:46:27.981Z,58.99
2023-02-12T09:48:09.619Z,55.56
2023-02-12T09:49:51.145Z,55.84
2023-02-12T09:51:22.633Z,61.81
2023-02-12T09:52:54.465Z,66.31
2023-02-12T09:54:25.784Z,56.21
2023-02-12T09:55:57.793Z,49.80
2023-02-12T09:57:29.280Z,51.69
2023-02-12T09:59:00.836Z,50.22
2023-02-12T10:00:32.172Z,51.05
2023-02-12T10:02:03.564Z,50.73
2023-02-12T10:03:34.805Z,53.41
2023-02-12T10:05:06.280Z,56.71
2023-02-12T10:06:37.745Z,56.87
2023-02-12T10:08:09.036Z,56.18
2023-02-12T10:09:41.109Z,51.11
2023-02-12T10:11:12.503Z,50.66
2023-02-12T10:12:44.084Z,51.17
2023-02-12T10:14:15.540Z,52.95
2023-02-12T10:15:47.047Z,51.12
2023-02-12T10:17:18.502Z,52.56
2023-02-12T10:18:49.964Z,53.21
2023-02-12T10:20:21.482Z,53.31
2023-02-12T10:21:54.630Z,55.69
2023-02-12T10:23:36.929Z,54.60
2023-02-12T10:25:08.797Z,55.02
2023-02-12T10:26:40.213Z,55.19
2023-02-12T10:28:11.928Z,52.07
2023-02-12T10:29:44.508Z,57.18
2023-02-12T10:31:16.098Z,50.91
2023-02-12T10:32:48.115Z,48.72
2023-02-12T10:34:19.619Z,50.75
2023-02-12T10:35:51.005Z,52.04
2023-02-12T10:37:24.191Z,51.02
2023-02-12T10:38:55.886Z,50.87
2023-02-12T10:40:27.615Z,50.46
2023-02-12T10:41:59.405Z,53.49
2023-02-12T10:43:42.271Z,53.55
2023-02-12T10:45:14.283Z,46.34
2023-02-12T10:46:46.081Z,48.48
2023-02-12T10:48:18.433Z,50.89
2023-02-12T10:49:51.007Z,44.98
2023-02-12T10:51:28.405Z,46.38
2023-02-12T10:53:06.608Z,46.34
2023-02-12T10:54:38.211Z,48.06
2023-02-12T10:56:19.751Z,50.29
2023-02-12T10:57:56.341Z,50.45
2023-02-12T10:59:28.165Z,49.94
2023-02-12T11:00:59.936Z,51.08
2023-02-12T11:02:31.335Z,54.20
2023-02-12T11:04:07.952Z,50.52
2023-02-12T11:05:39.360Z,52.10
2023-02-12T11:07:10.647Z,51.83
2023-02-12T11:08:42.457Z,51.98
2023-02-12T11:10:18.982Z,51.37
2023-02-12T11:11:50.464Z,51.60
2023-02-12T11:13:21.956Z,50.24
2023-02-12T11:14:53.244Z,49.82
2023-02-12T11:16:24.619Z,50.09
2023-02-12T11:17:56.240Z,53.04
2023-02-12T11:19:27.727Z,53.51
2023-02-12T11:20:59.295Z,51.44
2023-02-12T11:22:31.827Z,50.25
2023-02-12T11:24:04.898Z,51.67
2023-02-12T11:25:54.676Z,51.20
2023-02-12T11:27:26.951Z,52.24
2023-02-12T11:28:58.736Z,54.08
2023-02-12T11:30:30.380Z,50.61
2023-02-12T11:32:01.955Z,51.59
2023-02-12T11:33:34.650Z,53.05
2023-02-12T11:35:06.298Z,53.79
2023-02-12T11:36:38.085Z,50.74
2023-02-12T11:38:09.582Z,51.55
2023-02-12T11:39:40.926Z,50.69
2023-02-12T11:41:12.575Z,52.41
2023-02-12T11:42:44.298Z,50.69
2023-02-12T11:44:15.706Z,49.75
2023-02-12T11:45:47.003Z,46.88
2023-02-12T11:47:18.420Z,45.90
2023-02-12T11:48:49.787Z,47.23
2023-02-12T11:50:26.228Z,46.95
2023-02-12T11:51:57.613Z,46.16
2023-02-12T11:53:28.969Z,46.38
2023-02-12T11:55:00.300Z,44.92
2023-02-12T11:56:31.603Z,44.69
2023-02-12T11:58:03.077Z,46.75
2023-02-12T11:59:34.517Z,47.59
2023-02-12T12:01:05.975Z,45.85
2023-02-12T12:02:37.565Z,48.31
2023-02-12T12:04:08.911Z,47.33
2023-02-12T12:05:40.562Z,47.71
2023-02-12T12:07:12.063Z,47.36
2023-02-12T12:08:43.815Z,51.26
2023-02-12T12:10:16.471Z,48.91
2023-02-12T12:11:47.810Z,48.71
2023-02-12T12:13:19.603Z,49.98
2023-02-12T12:14:50.928Z,50.76
2023-02-12T12:16:22.342Z,49.52
2023-02-12T12:17:53.666Z,48.46
2023-02-12T12:19:25.082Z,48.59
2023-02-12T12:20:56.444Z,48.47
2023-02-12T12:22:28.098Z,49.58
2023-02-12T12:23:59.688Z,50.07
2023-02-12T12:25:31.997Z,49.16
2023-02-12T12:27:04.094Z,52.13
2023-02-12T12:28:35.509Z,52.38
2023-02-12T12:30:07.568Z,50.78
2023-02-12T12:31:40.464Z,52.03
2023-02-12T12:33:12.956Z,51.94
2023-02-12T12:34:44.641Z,53.70
2023-02-12T12:36:21.118Z,53.30
2023-02-12T12:37:57.791Z,50.83
2023-02-12T12:39:29.168Z,50.13
2023-02-12T12:41:00.557Z,50.33
2023-02-12T12:42:32.314Z,53.86
2023-02-12T12:44:03.731Z,48.74
2023-02-12T12:45:35.166Z,45.85
2023-02-12T12:47:06.625Z,48.00
2023-02-12T12:48:42.939Z,51.47
2023-02-12T12:50:14.524Z,49.56
2023-02-12T12:51:46.140Z,48.46
2023-02-12T12:53:32.784Z,51.87
2023-02-12T12:55:05.031Z,47.66
2023-02-12T12:56:37.023Z,50.12
2023-02-12T12:58:08.422Z,50.37
2023-02-12T12:59:39.919Z,50.27
2023-02-12T13:01:11.478Z,48.18
2023-02-12T13:02:43.001Z,47.73
2023-02-12T13:04:14.425Z,46.47
2023-02-12T13:05:47.633Z,47.32
2023-02-12T13:07:20.055Z,44.92
2023-02-12T13:08:51.637Z,45.78
2023-02-12T13:10:30.639Z,46.18
2023-02-12T13:12:02.355Z,47.55
2023-02-12T13:13:33.734Z,46.84
2023-02-12T13:15:05.396Z,44.54
2023-02-12T13:16:36.765Z,48.15
2023-02-12T13:18:08.095Z,45.48
2023-02-12T13:19:39.794Z,45.80
2023-02-12T13:21:11.447Z,46.70
2023-02-12T13:22:42.827Z,49.00
2023-02-12T13:24:23.434Z,47.96
2023-02-12T13:26:26.746Z,44.46
2023-02-12T13:27:58.362Z,42.98
2023-02-12T13:29:29.896Z,43.44
2023-02-12T13:31:01.370Z,44.86
2023-02-12T13:32:32.957Z,43.32
2023-02-12T13:34:04.216Z,45.18
2023-02-12T13:35:35.744Z,45.11
2023-02-12T13:37:07.266Z,44.20
2023-02-12T13:38:38.641Z,45.62
2023-02-12T13:40:10.047Z,46.06
2023-02-12T13:41:41.982Z,46.32
2023-02-12T13:43:13.433Z,46.05
2023-02-12T13:44:45.015Z,44.30
2023-02-12T13:46:16.548Z,44.37
2023-02-12T13:47:47.888Z,45.34
2023-02-12T13:49:19.262Z,44.94
2023-02-12T13:53:31.719Z,45.25
2023-02-12T13:55:13.291Z,43.69
2023-02-12T13:56:45.296Z,42.92
2023-02-12T13:58:52.298Z,44.33
2023-02-12T14:00:28.806Z,42.82
2023-02-12T14:02:00.845Z,43.38
2023-02-12T14:03:32.689Z,42.45
2023-02-12T14:05:04.487Z,43.28
2023-02-12T14:06:36.672Z,42.68
2023-02-12T14:08:08.672Z,43.39
2023-02-12T14:09:40.216Z,41.08
2023-02-12T14:12:06.250Z,38.89
2023-02-12T14:13:38.114Z,40.78
2023-02-12T14:16:03.451Z,40.27
2023-02-12T14:18:31.090Z,39.68
2023-02-12T14:20:03.939Z,42.13
2023-02-12T14:21:35.277Z,41.67
2023-02-12T14:23:06.648Z,40.65
2023-02-12T14:25:10.042Z,41.88
2023-02-12T14:26:51.396Z,43.57
2023-02-12T14:28:46.325Z,43.34
2023-02-12T14:30:18.626Z,42.46
2023-02-12T14:32:06.752Z,42.01
2023-02-12T14:34:05.066Z,43.22
2023-02-12T14:35:36.906Z,41.32
2023-02-12T14:37:28.348Z,42.21
2023-02-12T14:39:27.356Z,38.89
2023-02-12T14:41:26.596Z,43.28
2023-02-12T14:43:08.768Z,41.79
2023-02-12T14:47:11.714Z,43.66
2023-02-12T14:49:12.003Z,43.73
2023-02-12T14:51:11.402Z,42.82
2023-02-12T14:55:23.630Z,40.65
2023-02-12T14:57:11.802Z,40.38
2023-02-12T14:58:48.478Z,41.80
2023-02-12T15:00:45.698Z,44.19
2023-02-12T15:02:21.791Z,42.07
2023-02-12T15:04:29.632Z,42.94
2023-02-12T15:06:01.506Z,42.64
2023-02-12T15:07:33.365Z,40.95
2023-02-12T15:09:10.189Z,42.00
2023-02-12T15:10:41.897Z,45.93
2023-02-12T15:12:13.802Z,43.39
2023-02-12T15:14:06.949Z,44.02
2023-02-12T15:15:38.514Z,42.71
2023-02-12T15:17:10.616Z,43.05
2023-02-12T15:18:42.086Z,44.04
2023-02-12T15:20:13.578Z,44.62
2023-02-12T15:21:45.474Z,43.60
2023-02-12T15:23:17.109Z,44.11
2023-02-12T15:24:48.523Z,44.20
2023-02-12T15:26:20.186Z,43.70
2023-02-12T15:27:52.034Z,43.14
2023-02-12T15:29:23.604Z,41.05
2023-02-12T15:30:55.415Z,43.26
2023-02-12T15:32:32.655Z,41.39
2023-02-12T15:34:04.437Z,40.45
2023-02-12T15:35:38.518Z,38.33
2023-02-12T15:37:11.271Z,40.13
2023-02-12T15:38:42.811Z,40.20
2023-02-12T15:40:14.128Z,38.76
2023-02-12T15:41:45.738Z,40.50
2023-02-12T15:43:58.765Z,42.44
2023-02-12T15:45:30.470Z,38.93
2023-02-12T15:47:02.544Z,38.89
2023-02-12T15:48:34.088Z,39.09
2023-02-12T15:50:05.616Z,37.58
2023-02-12T15:51:37.550Z,41.96
2023-02-12T15:53:09.546Z,40.36
2023-02-12T15:54:41.246Z,41.51
2023-02-12T15:56:12.699Z,39.68
2023-02-12T15:57:45.678Z,40.59
2023-02-12T15:59:22.340Z,40.58
2023-02-12T16:00:54.071Z,39.06
2023-02-12T16:02:25.689Z,39.29
2023-02-12T16:03:57.223Z,40.55
2023-02-12T16:05:29.054Z,40.52
2023-02-12T16:07:03.064Z,41.92
2023-02-12T16:08:34.921Z,42.41
2023-02-12T16:10:06.713Z,39.86
2023-02-12T16:11:38.478Z,39.33
2023-02-12T16:13:15.781Z,40.04
2023-02-12T16:14:52.193Z,39.97
2023-02-12T16:16:41.889Z,39.18
2023-02-12T16:18:29.449Z,41.95
2023-02-12T16:20:36.243Z,40.19
2023-02-12T16:22:07.579Z,40.28
2023-02-12T16:23:43.661Z,40.72
2023-02-12T16:25:15.660Z,39.89
2023-02-12T16:26:46.991Z,39.22
2023-02-12T16:28:18.498Z,41.67
2023-02-12T16:30:12.119Z,39.69
2023-02-12T16:31:43.693Z,40.06
2023-02-12T16:33:30.985Z,40.37
2023-02-12T16:35:02.544Z,40.63
2023-02-12T16:36:33.923Z,40.61
2023-02-12T16:38:05.456Z,39.81
2023-02-12T16:39:36.936Z,39.02
2023-02-12T16:41:08.212Z,39.68
2023-02-12T16:42:58.672Z,39.10
2023-02-12T16:44:41.281Z,43.08
2023-02-12T16:46:12.739Z,42.13
2023-02-12T16:50:03.930Z,42.78
2023-02-12T16:53:36.305Z,41.76
2023-02-12T16:55:29.824Z,42.27
2023-02-12T16:57:01.639Z,44.25
2023-02-12T16:58:38.383Z,43.01
2023-02-12T17:00:11.521Z,41.68
2023-02-12T17:02:10.427Z,43.72
2023-02-12T17:03:42.168Z,44.93
2023-02-12T17:05:34.700Z,44.02
2023-02-12T17:07:06.047Z,43.28
2023-02-12T17:08:57.457Z,45.27
2023-02-12T17:10:51.148Z,46.13
2023-02-12T17:12:56.755Z,46.40
2023-02-12T17:14:32.165Z,45.78
2023-02-12T17:16:18.865Z,46.26
2023-02-12T17:18:00.090Z,48.33
2023-02-12T17:19:31.458Z,44.58
2023-02-12T17:21:35.225Z,45.85
2023-02-12T17:23:08.127Z,46.25
2023-02-12T17:24:55.412Z,46.58
2023-02-12T17:26:27.074Z,48.55
2023-02-12T17:27:58.866Z,48.91
2023-02-12T17:29:31.040Z,45.94
2023-02-12T17:31:02.654Z,43.73
2023-02-12T17:32:34.600Z,47.48
2023-02-12T17:34:46.539Z,48.34
2023-02-12T17:36:36.621Z,49.52
2023-02-12T17:38:08.521Z,47.58
2023-02-12T17:39:40.287Z,47.45
2023-02-12T17:41:18.233Z,48.90
2023-02-12T17:42:54.733Z,49.63
2023-02-12T17:44:26.058Z,50.29
2023-02-12T17:46:08.227Z,46.20
2023-02-12T17:47:39.830Z,46.91
2023-02-12T17:49:11.248Z,50.76
2023-02-12T17:50:42.807Z,46.79
2023-02-12T17:52:14.456Z,47.94
2023-02-12T17:53:46.249Z,46.18
2023-02-12T17:55:17.697Z,50.82
2023-02-12T17:56:49.123Z,47.33
2023-02-12T17:58:35.493Z,48.85
2023-02-12T18:00:18.853Z,48.67
2023-02-12T18:01:50.667Z,47.80
2023-02-12T18:03:24.156Z,46.67
2023-02-12T18:05:50.999Z,46.43
2023-02-12T18:07:28.045Z,44.89
2023-02-12T18:09:14.656Z,46.05
2023-02-12T18:10:46.325Z,47.21
2023-02-12T18:12:18.146Z,46.10
2023-02-12T18:14:16.271Z,45.41
2023-02-12T18:15:48.126Z,48.21
2023-02-12T18:17:20.031Z,46.05
2023-02-12T18:18:58.061Z,46.32
2023-02-12T18:20:30.003Z,44.36
2023-02-12T18:22:03.047Z,46.47
2023-02-12T18:23:34.585Z,45.13
2023-02-12T18:25:06.034Z,46.26
2023-02-12T18:26:47.718Z,46.39
2023-02-12T18:28:27.017Z,42.52
2023-02-12T18:29:59.358Z,43.13
2023-02-12T18:31:53.833Z,43.98
2023-02-12T18:33:26.417Z,45.58
2023-02-12T18:34:58.155Z,44.18
2023-02-12T18:36:29.994Z,42.65
2023-02-12T18:38:01.726Z,41.22
2023-02-12T18:39:33.266Z,42.85
2023-02-12T18:41:05.496Z,44.64
2023-02-12T18:42:37.265Z,43.01
2023-02-12T18:44:08.611Z,44.13
2023-02-12T18:45:40.547Z,42.61
2023-02-12T18:47:29.395Z,42.79
2023-02-12T18:49:00.826Z,42.20
2023-02-12T18:50:32.466Z,41.18
2023-02-12T18:52:04.428Z,39.96
2023-02-12T18:53:36.186Z,42.38
2023-02-12T18:55:07.852Z,39.65
2023-02-12T18:56:56.764Z,42.02
2023-02-12T18:58:46.208Z,41.44
2023-02-12T19:00:17.988Z,41.91
2023-02-12T19:01:49.993Z,41.43
2023-02-12T19:03:22.037Z,40.82
2023-02-12T19:04:53.855Z,41.44
2023-02-12T19:06:25.479Z,41.13
2023-02-12T19:07:57.520Z,42.96
2023-02-12T19:09:48.903Z,40.63
2023-02-12T19:11:21.912Z,40.01
2023-02-12T19:12:53.833Z,39.26
2023-02-12T19:14:25.699Z,39.54
2023-02-12T19:15:58.474Z,39.67
2023-02-12T19:17:30.690Z,39.95
2023-02-12T19:19:03.817Z,41.76
2023-02-12T19:20:36.775Z,40.21
2023-02-12T19:22:08.387Z,41.91
2023-02-12T19:23:40.231Z,40.23
2023-02-12T19:25:11.973Z,38.06
2023-02-12T19:26:44.104Z,39.39
2023-02-12T19:28:15.659Z,40.15
2023-02-12T19:29:47.249Z,39.73
2023-02-12T19:31:30.028Z,40.94
2023-02-12T19:33:01.993Z,38.87
2023-02-12T19:34:39.088Z,39.31
2023-02-12T19:36:10.800Z,40.99
2023-02-12T19:38:03.854Z,40.57
2023-02-12T19:39:35.696Z,39.87
2023-02-12T19:41:07.368Z,40.35
2023-02-12T19:42:38.814Z,37.03
2023-02-12T19:44:10.989Z,38.80
2023-02-12T19:45:42.701Z,37.65
2023-02-12T19:47:19.546Z,36.82
2023-02-12T19:48:51.796Z,38.28
2023-02-12T19:50:24.063Z,39.11
2023-02-12T19:51:56.402Z,38.90
2023-02-12T19:53:28.486Z,36.78
2023-02-12T19:55:00.829Z,37.84
2023-02-12T19:56:33.407Z,37.87
2023-02-12T19:58:05.613Z,37.49
2023-02-12T19:59:37.691Z,38.07
2023-02-12T20:01:09.348Z,39.16
2023-02-12T20:02:46.464Z,36.82
2023-02-12T20:04:19.444Z,38.95
2023-02-12T20:05:51.461Z,37.15
2023-02-12T20:07:23.315Z,40.26
2023-02-12T20:08:54.857Z,36.51
2023-02-12T20:10:26.495Z,37.08
2023-02-12T20:11:58.130Z,39.59
2023-02-12T20:13:32.670Z,38.29
2023-02-12T20:15:05.629Z,37.77
2023-02-12T20:16:38.144Z,37.37
2023-02-12T20:18:10.169Z,37.82
2023-02-12T20:19:41.978Z,39.99
2023-02-12T20:21:13.759Z,37.08
2023-02-12T20:22:45.316Z,36.34
2023-02-12T20:24:17.066Z,37.03
2023-02-12T20:25:48.596Z,35.97
2023-02-12T20:27:20.242Z,36.74